sensor_id;sensor_type;location;lat;lon;timestamp;P1;durP1;ratioP1;P2;durP2;ratioP2
3309;SDS011;1667;53.238;10.394;2023-11-19T00:01:19;3.00;;;2.43;;
3309;SDS011;1667;53.238;10.394;2023-11-19T00:06:18;4.10;;;3.70;;
3309;SDS011;1667;53.238;10.394;2023-11-19T00:11:16;2.63;;;2.40;;
3309;SDS011;1667;53.238;10.394;2023-11-19T00:16:16;3.20;;;2.00;;
3309;SDS011;1667;53.238;10.394;2023-11-19T00:28:10;1.70;;;1.53;;
3309;SDS011;1667;53.238;10.394;2023-11-19T00:33:11;2.43;;;1.97;;
3309;SDS011;1667;53.238;10.394;2023-11-19T00:38:09;2.07;;;1.87;;
3309;SDS011;1667;53.238;10.394;2023-11-19T00:43:08;3.03;;;2.33;;
3309;SDS011;1667;53.238;10.394;2023-11-19T00:48:07;2.00;;;1.47;;
3309;SDS011;1667;53.238;10.394;2023-11-19T00:53:08;1.80;;;1.53;;
3309;SDS011;1667;53.238;10.394;2023-11-19T00:58:06;2.83;;;1.77;;
3309;SDS011;1667;53.238;10.394;2023-11-19T01:03:05;1.20;;;1.10;;
3309;SDS011;1667;53.238;10.394;2023-11-19T01:08:05;1.83;;;1.73;;
3309;SDS011;1667;53.238;10.394;2023-11-19T01:13:06;1.70;;;1.60;;
3309;SDS011;1667;53.238;10.394;2023-11-19T01:18:05;2.60;;;2.07;;
3309;SDS011;1667;53.238;10.394;2023-11-19T01:23:06;2.73;;;1.83;;
3309;SDS011;1667;53.238;10.394;2023-11-19T01:28:06;2.30;;;2.10;;
3309;SDS011;1667;53.238;10.394;2023-11-19T01:33:05;2.40;;;2.00;;
3309;SDS011;1667;53.238;10.394;2023-11-19T01:38:04;1.93;;;1.73;;
3309;SDS011;1667;53.238;10.394;2023-11-19T01:43:03;2.10;;;1.57;;
3309;SDS011;1667;53.238;10.394;2023-11-19T01:48:04;1.60;;;1.50;;
3309;SDS011;1667;53.238;10.394;2023-11-19T01:53:03;1.83;;;1.40;;
3309;SDS011;1667;53.238;10.394;2023-11-19T01:58:02;1.77;;;1.57;;
3309;SDS011;1667;53.238;10.394;2023-11-19T02:03:01;1.50;;;1.03;;
3309;SDS011;1667;53.238;10.394;2023-11-19T02:08:04;1.97;;;1.77;;
3309;SDS011;1667;53.238;10.394;2023-11-19T02:13:03;2.07;;;1.93;;
3309;SDS011;1667;53.238;10.394;2023-11-19T02:18:21;1.40;;;1.30;;
3309;SDS011;1667;53.238;10.394;2023-11-19T02:23:20;1.53;;;1.43;;
3309;SDS011;1667;53.238;10.394;2023-11-19T02:28:21;1.50;;;1.23;;
3309;SDS011;1667;53.238;10.394;2023-11-19T02:33:20;1.27;;;1.17;;
3309;SDS011;1667;53.238;10.394;2023-11-19T02:38:20;1.33;;;1.20;;
3309;SDS011;1667;53.238;10.394;2023-11-19T02:43:21;4.20;;;1.23;;
3309;SDS011;1667;53.238;10.394;2023-11-19T02:48:20;1.17;;;1.07;;
3309;SDS011;1667;53.238;10.394;2023-11-19T02:53:19;1.20;;;1.10;;
3309;SDS011;1667;53.238;10.394;2023-11-19T02:58:21;1.17;;;1.07;;
3309;SDS011;1667;53.238;10.394;2023-11-19T03:03:21;1.07;;;1.00;;
3309;SDS011;1667;53.238;10.394;2023-11-19T03:08:25;1.20;;;1.10;;
3309;SDS011;1667;53.238;10.394;2023-11-19T03:13:27;1.03;;;1.03;;
3309;SDS011;1667;53.238;10.394;2023-11-19T03:18:25;1.70;;;0.70;;
3309;SDS011;1667;53.238;10.394;2023-11-19T03:23:25;0.80;;;0.80;;
3309;SDS011;1667;53.238;10.394;2023-11-19T03:28:26;0.70;;;0.70;;
3309;SDS011;1667;53.238;10.394;2023-11-19T03:33:25;0.70;;;0.70;;
3309;SDS011;1667;53.238;10.394;2023-11-19T03:38:25;0.53;;;0.50;;
3309;SDS011;1667;53.238;10.394;2023-11-19T03:43:24;0.70;;;0.70;;
3309;SDS011;1667;53.238;10.394;2023-11-19T03:48:25;0.60;;;0.60;;
3309;SDS011;1667;53.238;10.394;2023-11-19T03:53:24;0.70;;;0.70;;
3309;SDS011;1667;53.238;10.394;2023-11-19T03:58:22;0.70;;;0.70;;
3309;SDS011;1667;53.238;10.394;2023-11-19T04:03:23;0.60;;;0.60;;
3309;SDS011;1667;53.238;10.394;2023-11-19T04:08:22;0.60;;;0.60;;
3309;SDS011;1667;53.238;10.394;2023-11-19T04:13:21;0.80;;;0.80;;
3309;SDS011;1667;53.238;10.394;2023-11-19T04:18:22;1.10;;;0.80;;
3309;SDS011;1667;53.238;10.394;2023-11-19T04:23:21;1.40;;;0.87;;
3309;SDS011;1667;53.238;10.394;2023-11-19T04:28:22;0.90;;;0.90;;
3309;SDS011;1667;53.238;10.394;2023-11-19T04:33:26;0.80;;;0.80;;
3309;SDS011;1667;53.238;10.394;2023-11-19T04:38:25;1.10;;;1.10;;
3309;SDS011;1667;53.238;10.394;2023-11-19T04:43:24;1.57;;;1.47;;
3309;SDS011;1667;53.238;10.394;2023-11-19T04:48:23;1.33;;;1.27;;
3309;SDS011;1667;53.238;10.394;2023-11-19T04:53:23;1.50;;;1.40;;
3309;SDS011;1667;53.238;10.394;2023-11-19T04:58:22;2.30;;;2.10;;
3309;SDS011;1667;53.238;10.394;2023-11-19T05:03:21;1.53;;;1.43;;
3309;SDS011;1667;53.238;10.394;2023-11-19T05:08:21;1.57;;;1.47;;
3309;SDS011;1667;53.238;10.394;2023-11-19T05:13:21;2.50;;;2.30;;
3309;SDS011;1667;53.238;10.394;2023-11-19T05:18:21;2.07;;;1.87;;
3309;SDS011;1667;53.238;10.394;2023-11-19T05:23:20;2.00;;;1.80;;
3309;SDS011;1667;53.238;10.394;2023-11-19T05:28:20;3.47;;;2.30;;
3309;SDS011;1667;53.238;10.394;2023-11-19T05:33:21;2.57;;;2.37;;
3309;SDS011;1667;53.238;10.394;2023-11-19T05:38:20;3.73;;;3.30;;
3309;SDS011;1667;53.238;10.394;2023-11-19T05:43:20;3.20;;;2.87;;
3309;SDS011;1667;53.238;10.394;2023-11-19T05:48:20;3.37;;;2.33;;
3309;SDS011;1667;53.238;10.394;2023-11-19T05:53:37;3.30;;;2.60;;
3309;SDS011;1667;53.238;10.394;2023-11-19T05:58:39;3.90;;;2.90;;
3309;SDS011;1667;53.238;10.394;2023-11-19T06:03:38;3.40;;;3.00;;
3309;SDS011;1667;53.238;10.394;2023-11-19T06:08:36;4.83;;;3.33;;
3309;SDS011;1667;53.238;10.394;2023-11-19T06:13:35;2.73;;;2.07;;
3309;SDS011;1667;53.238;10.394;2023-11-19T06:18:37;4.33;;;2.70;;
3309;SDS011;1667;53.238;10.394;2023-11-19T06:23:36;5.17;;;3.87;;
3309;SDS011;1667;53.238;10.394;2023-11-19T06:28:35;6.63;;;4.40;;
3309;SDS011;1667;53.238;10.394;2023-11-19T06:33:34;4.70;;;3.40;;
3309;SDS011;1667;53.238;10.394;2023-11-19T06:38:34;14.00;;;3.43;;
3309;SDS011;1667;53.238;10.394;2023-11-19T06:43:32;14.10;;;4.50;;
3309;SDS011;1667;53.238;10.394;2023-11-19T06:48:34;6.30;;;3.70;;
3309;SDS011;1667;53.238;10.394;2023-11-19T06:53:34;6.83;;;4.27;;
3309;SDS011;1667;53.238;10.394;2023-11-19T06:58:35;10.40;;;5.07;;
3309;SDS011;1667;53.238;10.394;2023-11-19T07:03:34;10.20;;;4.07;;
3309;SDS011;1667;53.238;10.394;2023-11-19T07:08:35;9.90;;;3.93;;
3309;SDS011;1667;53.238;10.394;2023-11-19T07:13:35;10.10;;;4.73;;
3309;SDS011;1667;53.238;10.394;2023-11-19T07:18:34;8.20;;;4.60;;
3309;SDS011;1667;53.238;10.394;2023-11-19T07:23:57;9.73;;;4.30;;
3309;SDS011;1667;53.238;10.394;2023-11-19T07:28:57;8.73;;;4.13;;
3309;SDS011;1667;53.238;10.394;2023-11-19T07:33:56;9.50;;;4.10;;
3309;SDS011;1667;53.238;10.394;2023-11-19T07:38:54;8.87;;;4.00;;
3309;SDS011;1667;53.238;10.394;2023-11-19T07:43:56;6.57;;;3.80;;
3309;SDS011;1667;53.238;10.394;2023-11-19T07:48:55;17.70;;;4.13;;
3309;SDS011;1667;53.238;10.394;2023-11-19T07:53:54;13.70;;;4.03;;
3309;SDS011;1667;53.238;10.394;2023-11-19T07:58:53;9.63;;;2.93;;
3309;SDS011;1667;53.238;10.394;2023-11-19T08:03:53;7.03;;;3.73;;
3309;SDS011;1667;53.238;10.394;2023-11-19T08:08:55;10.03;;;2.77;;
3309;SDS011;1667;53.238;10.394;2023-11-19T08:13:54;13.53;;;4.60;;
3309;SDS011;1667;53.238;10.394;2023-11-19T08:18:55;10.03;;;3.33;;
3309;SDS011;1667;53.238;10.394;2023-11-19T08:23:55;15.73;;;2.70;;
3309;SDS011;1667;53.238;10.394;2023-11-19T08:28:54;12.67;;;2.63;;
3309;SDS011;1667;53.238;10.394;2023-11-19T08:33:56;16.50;;;3.20;;
3309;SDS011;1667;53.238;10.394;2023-11-19T08:38:55;15.00;;;3.70;;
3309;SDS011;1667;53.238;10.394;2023-11-19T08:43:54;12.13;;;3.67;;
3309;SDS011;1667;53.238;10.394;2023-11-19T08:48:53;28.33;;;4.80;;
3309;SDS011;1667;53.238;10.394;2023-11-19T08:53:54;13.53;;;3.80;;
3309;SDS011;1667;53.238;10.394;2023-11-19T08:58:54;8.27;;;2.67;;
3309;SDS011;1667;53.238;10.394;2023-11-19T09:03:53;12.83;;;4.80;;
3309;SDS011;1667;53.238;10.394;2023-11-19T09:08:54;8.13;;;2.90;;
3309;SDS011;1667;53.238;10.394;2023-11-19T09:13:57;3.30;;;1.57;;
3309;SDS011;1667;53.238;10.394;2023-11-19T09:18:57;10.00;;;2.17;;
3309;SDS011;1667;53.238;10.394;2023-11-19T09:23:59;9.03;;;2.37;;
3309;SDS011;1667;53.238;10.394;2023-11-19T09:28:58;14.40;;;4.20;;
3309;SDS011;1667;53.238;10.394;2023-11-19T09:33:58;12.93;;;5.03;;
3309;SDS011;1667;53.238;10.394;2023-11-19T09:38:57;15.70;;;3.93;;
3309;SDS011;1667;53.238;10.394;2023-11-19T09:43:57;5.37;;;2.07;;
3309;SDS011;1667;53.238;10.394;2023-11-19T09:48:56;26.83;;;4.47;;
3309;SDS011;1667;53.238;10.394;2023-11-19T09:53:58;14.07;;;2.70;;
3309;SDS011;1667;53.238;10.394;2023-11-19T09:58:58;15.60;;;3.33;;
3309;SDS011;1667;53.238;10.394;2023-11-19T10:03:58;16.23;;;3.40;;
3309;SDS011;1667;53.238;10.394;2023-11-19T10:08:58;18.43;;;3.63;;
3309;SDS011;1667;53.238;10.394;2023-11-19T10:13:56;36.10;;;4.30;;
3309;SDS011;1667;53.238;10.394;2023-11-19T10:25:29;10.00;;;2.77;;
3309;SDS011;1667;53.238;10.394;2023-11-19T10:30:29;18.87;;;3.17;;
3309;SDS011;1667;53.238;10.394;2023-11-19T10:35:30;19.07;;;3.67;;
3309;SDS011;1667;53.238;10.394;2023-11-19T10:40:41;10.83;;;2.60;;
3309;SDS011;1667;53.238;10.394;2023-11-19T10:45:40;14.40;;;4.50;;
3309;SDS011;1667;53.238;10.394;2023-11-19T10:50:39;15.73;;;3.53;;
3309;SDS011;1667;53.238;10.394;2023-11-19T10:55:40;15.83;;;3.87;;
3309;SDS011;1667;53.238;10.394;2023-11-19T11:00:41;17.40;;;4.23;;
3309;SDS011;1667;53.238;10.394;2023-11-19T11:05:43;9.10;;;3.00;;
3309;SDS011;1667;53.238;10.394;2023-11-19T11:10:47;12.30;;;2.83;;
3309;SDS011;1667;53.238;10.394;2023-11-19T11:15:53;18.83;;;3.77;;
3309;SDS011;1667;53.238;10.394;2023-11-19T11:21:07;17.30;;;3.97;;
3309;SDS011;1667;53.238;10.394;2023-11-19T11:26:17;11.50;;;2.90;;
3309;SDS011;1667;53.238;10.394;2023-11-19T11:31:34;16.40;;;3.43;;
3309;SDS011;1667;53.238;10.394;2023-11-19T11:36:43;18.30;;;3.60;;
3309;SDS011;1667;53.238;10.394;2023-11-19T11:53:13;12.53;;;3.17;;
3309;SDS011;1667;53.238;10.394;2023-11-19T11:58:13;15.27;;;2.97;;
3309;SDS011;1667;53.238;10.394;2023-11-19T12:03:16;17.60;;;3.10;;
3309;SDS011;1667;53.238;10.394;2023-11-19T12:08:19;12.83;;;2.90;;
3309;SDS011;1667;53.238;10.394;2023-11-19T12:13:24;22.87;;;2.63;;
3309;SDS011;1667;53.238;10.394;2023-11-19T12:18:23;13.13;;;2.50;;
3309;SDS011;1667;53.238;10.394;2023-11-19T12:23:23;15.90;;;2.43;;
3309;SDS011;1667;53.238;10.394;2023-11-19T12:28:24;9.73;;;4.17;;
3309;SDS011;1667;53.238;10.394;2023-11-19T12:33:24;7.70;;;2.37;;
3309;SDS011;1667;53.238;10.394;2023-11-19T12:38:25;5.47;;;2.03;;
3309;SDS011;1667;53.238;10.394;2023-11-19T12:43:25;10.73;;;3.00;;
3309;SDS011;1667;53.238;10.394;2023-11-19T12:48:24;11.53;;;2.30;;
3309;SDS011;1667;53.238;10.394;2023-11-19T12:53:23;6.30;;;1.80;;
3309;SDS011;1667;53.238;10.394;2023-11-19T12:58:31;15.87;;;3.10;;
3309;SDS011;1667;53.238;10.394;2023-11-19T13:03:31;10.33;;;2.57;;
3309;SDS011;1667;53.238;10.394;2023-11-19T13:08:37;18.07;;;3.60;;
3309;SDS011;1667;53.238;10.394;2023-11-19T13:13:54;17.60;;;4.10;;
3309;SDS011;1667;53.238;10.394;2023-11-19T13:18:54;14.03;;;2.93;;
3309;SDS011;1667;53.238;10.394;2023-11-19T13:23:54;12.83;;;2.77;;
3309;SDS011;1667;53.238;10.394;2023-11-19T13:28:54;14.60;;;2.93;;
3309;SDS011;1667;53.238;10.394;2023-11-19T13:33:54;21.67;;;3.30;;
3309;SDS011;1667;53.238;10.394;2023-11-19T13:38:54;25.67;;;3.87;;
3309;SDS011;1667;53.238;10.394;2023-11-19T13:43:57;15.00;;;3.07;;
3309;SDS011;1667;53.238;10.394;2023-11-19T13:48:57;21.50;;;3.70;;
3309;SDS011;1667;53.238;10.394;2023-11-19T13:53:56;8.67;;;3.63;;
3309;SDS011;1667;53.238;10.394;2023-11-19T13:58:55;10.23;;;2.67;;
3309;SDS011;1667;53.238;10.394;2023-11-19T14:03:55;9.80;;;3.00;;
3309;SDS011;1667;53.238;10.394;2023-11-19T14:08:54;13.27;;;4.30;;
3309;SDS011;1667;53.238;10.394;2023-11-19T14:13:53;9.90;;;2.37;;
3309;SDS011;1667;53.238;10.394;2023-11-19T14:18:52;23.23;;;6.40;;
3309;SDS011;1667;53.238;10.394;2023-11-19T14:23:52;17.10;;;5.23;;
3309;SDS011;1667;53.238;10.394;2023-11-19T14:28:51;22.40;;;6.97;;
3309;SDS011;1667;53.238;10.394;2023-11-19T14:33:51;15.63;;;4.10;;
3309;SDS011;1667;53.238;10.394;2023-11-19T14:38:54;15.93;;;2.30;;
3309;SDS011;1667;53.238;10.394;2023-11-19T14:43:54;14.00;;;3.50;;
3309;SDS011;1667;53.238;10.394;2023-11-19T14:48:53;6.63;;;2.30;;
3309;SDS011;1667;53.238;10.394;2023-11-19T14:53:54;15.40;;;3.10;;
3309;SDS011;1667;53.238;10.394;2023-11-19T14:58:53;10.87;;;2.40;;
3309;SDS011;1667;53.238;10.394;2023-11-19T15:03:51;6.73;;;1.63;;
3309;SDS011;1667;53.238;10.394;2023-11-19T15:08:54;5.93;;;2.27;;
3309;SDS011;1667;53.238;10.394;2023-11-19T15:13:53;11.93;;;2.13;;
3309;SDS011;1667;53.238;10.394;2023-11-19T15:18:52;8.70;;;2.50;;
3309;SDS011;1667;53.238;10.394;2023-11-19T15:30:48;5.30;;;1.73;;
3309;SDS011;1667;53.238;10.394;2023-11-19T15:35:47;4.17;;;1.83;;
3309;SDS011;1667;53.238;10.394;2023-11-19T15:40:46;6.93;;;1.93;;
3309;SDS011;1667;53.238;10.394;2023-11-19T15:45:45;4.13;;;1.33;;
3309;SDS011;1667;53.238;10.394;2023-11-19T15:50:45;4.10;;;1.37;;
3309;SDS011;1667;53.238;10.394;2023-11-19T15:55:44;2.57;;;1.27;;
3309;SDS011;1667;53.238;10.394;2023-11-19T16:00:45;7.73;;;2.63;;
3309;SDS011;1667;53.238;10.394;2023-11-19T16:05:45;5.00;;;1.53;;
3309;SDS011;1667;53.238;10.394;2023-11-19T16:11:03;10.03;;;2.00;;
3309;SDS011;1667;53.238;10.394;2023-11-19T16:16:03;7.40;;;2.00;;
3309;SDS011;1667;53.238;10.394;2023-11-19T16:21:07;4.97;;;1.77;;
3309;SDS011;1667;53.238;10.394;2023-11-19T16:26:06;5.93;;;2.00;;
3309;SDS011;1667;53.238;10.394;2023-11-19T16:31:05;4.37;;;1.97;;
3309;SDS011;1667;53.238;10.394;2023-11-19T16:36:07;8.33;;;1.93;;
3309;SDS011;1667;53.238;10.394;2023-11-19T16:41:06;5.70;;;1.67;;
3309;SDS011;1667;53.238;10.394;2023-11-19T16:46:06;8.03;;;3.33;;
3309;SDS011;1667;53.238;10.394;2023-11-19T16:51:10;3.63;;;2.07;;
3309;SDS011;1667;53.238;10.394;2023-11-19T16:56:11;9.10;;;3.07;;
3309;SDS011;1667;53.238;10.394;2023-11-19T17:01:10;9.53;;;2.60;;
3309;SDS011;1667;53.238;10.394;2023-11-19T17:06:10;9.80;;;2.50;;
3309;SDS011;1667;53.238;10.394;2023-11-19T17:11:11;5.43;;;2.30;;
3309;SDS011;1667;53.238;10.394;2023-11-19T17:21:32;8.27;;;2.60;;
3309;SDS011;1667;53.238;10.394;2023-11-19T17:26:31;6.60;;;2.80;;
3309;SDS011;1667;53.238;10.394;2023-11-19T17:31:33;8.03;;;2.70;;
3309;SDS011;1667;53.238;10.394;2023-11-19T17:36:34;13.00;;;4.03;;
3309;SDS011;1667;53.238;10.394;2023-11-19T17:41:34;13.50;;;3.27;;
3309;SDS011;1667;53.238;10.394;2023-11-19T17:46:33;6.53;;;3.10;;
3309;SDS011;1667;53.238;10.394;2023-11-19T17:51:32;11.83;;;2.70;;
3309;SDS011;1667;53.238;10.394;2023-11-19T17:56:31;5.37;;;2.30;;
3309;SDS011;1667;53.238;10.394;2023-11-19T18:01:30;10.03;;;3.67;;
3309;SDS011;1667;53.238;10.394;2023-11-19T18:06:29;8.60;;;3.37;;
3309;SDS011;1667;53.238;10.394;2023-11-19T18:11:28;10.70;;;3.77;;
3309;SDS011;1667;53.238;10.394;2023-11-19T18:16:28;15.27;;;3.17;;
3309;SDS011;1667;53.238;10.394;2023-11-19T18:21:29;8.57;;;3.13;;
3309;SDS011;1667;53.238;10.394;2023-11-19T18:26:29;5.37;;;3.00;;
3309;SDS011;1667;53.238;10.394;2023-11-19T18:31:33;16.20;;;3.20;;
3309;SDS011;1667;53.238;10.394;2023-11-19T18:36:34;9.43;;;3.13;;
3309;SDS011;1667;53.238;10.394;2023-11-19T18:41:33;14.73;;;4.20;;
3309;SDS011;1667;53.238;10.394;2023-11-19T18:46:34;11.50;;;3.53;;
3309;SDS011;1667;53.238;10.394;2023-11-19T18:51:32;9.63;;;3.73;;
3309;SDS011;1667;53.238;10.394;2023-11-19T18:56:32;14.47;;;3.07;;
3309;SDS011;1667;53.238;10.394;2023-11-19T19:01:31;6.70;;;3.17;;
3309;SDS011;1667;53.238;10.394;2023-11-19T19:06:31;12.03;;;3.27;;
3309;SDS011;1667;53.238;10.394;2023-11-19T19:11:30;7.77;;;2.67;;
3309;SDS011;1667;53.238;10.394;2023-11-19T19:16:30;10.03;;;3.10;;
3309;SDS011;1667;53.238;10.394;2023-11-19T19:21:29;10.00;;;3.90;;
3309;SDS011;1667;53.238;10.394;2023-11-19T19:26:30;11.63;;;3.90;;
3309;SDS011;1667;53.238;10.394;2023-11-19T19:31:29;3.63;;;2.67;;
3309;SDS011;1667;53.238;10.394;2023-11-19T19:36:28;6.53;;;2.67;;
3309;SDS011;1667;53.238;10.394;2023-11-19T19:41:30;13.03;;;3.53;;
3309;SDS011;1667;53.238;10.394;2023-11-19T19:46:30;11.53;;;4.00;;
3309;SDS011;1667;53.238;10.394;2023-11-19T19:51:29;8.93;;;3.73;;
3309;SDS011;1667;53.238;10.394;2023-11-19T19:56:28;7.63;;;3.67;;
3309;SDS011;1667;53.238;10.394;2023-11-19T20:01:28;7.13;;;3.30;;
3309;SDS011;1667;53.238;10.394;2023-11-19T20:06:35;8.07;;;2.80;;
3309;SDS011;1667;53.238;10.394;2023-11-19T20:11:34;7.57;;;2.40;;
3309;SDS011;1667;53.238;10.394;2023-11-19T20:16:35;9.07;;;3.20;;
3309;SDS011;1667;53.238;10.394;2023-11-19T20:21:33;3.10;;;2.30;;
3309;SDS011;1667;53.238;10.394;2023-11-19T20:26:33;6.67;;;3.20;;
3309;SDS011;1667;53.238;10.394;2023-11-19T20:31:32;8.83;;;3.20;;
3309;SDS011;1667;53.238;10.394;2023-11-19T20:36:32;9.37;;;3.57;;
3309;SDS011;1667;53.238;10.394;2023-11-19T20:41:31;9.90;;;3.17;;
3309;SDS011;1667;53.238;10.394;2023-11-19T20:46:30;8.60;;;2.93;;
3309;SDS011;1667;53.238;10.394;2023-11-19T20:51:29;3.27;;;2.43;;
3309;SDS011;1667;53.238;10.394;2023-11-19T20:56:32;6.97;;;2.80;;
3309;SDS011;1667;53.238;10.394;2023-11-19T21:01:31;6.87;;;3.77;;
3309;SDS011;1667;53.238;10.394;2023-11-19T21:06:30;5.90;;;3.80;;
3309;SDS011;1667;53.238;10.394;2023-11-19T21:11:52;12.90;;;6.00;;
3309;SDS011;1667;53.238;10.394;2023-11-19T21:16:50;7.77;;;5.00;;
3309;SDS011;1667;53.238;10.394;2023-11-19T21:21:49;11.33;;;5.03;;
3309;SDS011;1667;53.238;10.394;2023-11-19T21:26:49;9.73;;;3.90;;
3309;SDS011;1667;53.238;10.394;2023-11-19T21:32:08;5.63;;;3.37;;
3309;SDS011;1667;53.238;10.394;2023-11-19T21:37:08;16.63;;;3.00;;
3309;SDS011;1667;53.238;10.394;2023-11-19T21:42:07;7.43;;;2.87;;
3309;SDS011;1667;53.238;10.394;2023-11-19T21:47:06;6.80;;;3.33;;
3309;SDS011;1667;53.238;10.394;2023-11-19T21:52:08;5.07;;;2.53;;
3309;SDS011;1667;53.238;10.394;2023-11-19T21:57:06;3.70;;;2.10;;
3309;SDS011;1667;53.238;10.394;2023-11-19T22:02:05;10.03;;;2.90;;
3309;SDS011;1667;53.238;10.394;2023-11-19T22:07:04;6.13;;;2.10;;
3309;SDS011;1667;53.238;10.394;2023-11-19T22:12:06;2.77;;;2.47;;
3309;SDS011;1667;53.238;10.394;2023-11-19T22:17:06;6.93;;;2.73;;
3309;SDS011;1667;53.238;10.394;2023-11-19T22:22:05;9.27;;;3.27;;
3309;SDS011;1667;53.238;10.394;2023-11-19T22:27:07;4.47;;;2.43;;
3309;SDS011;1667;53.238;10.394;2023-11-19T22:32:07;5.93;;;2.23;;
3309;SDS011;1667;53.238;10.394;2023-11-19T22:37:06;5.73;;;2.20;;
3309;SDS011;1667;53.238;10.394;2023-11-19T22:42:06;4.43;;;2.17;;
3309;SDS011;1667;53.238;10.394;2023-11-19T22:47:05;9.37;;;2.73;;
3309;SDS011;1667;53.238;10.394;2023-11-19T22:52:05;4.53;;;1.87;;
3309;SDS011;1667;53.238;10.394;2023-11-19T22:57:04;5.97;;;2.10;;
3309;SDS011;1667;53.238;10.394;2023-11-19T23:02:05;8.60;;;1.97;;
3309;SDS011;1667;53.238;10.394;2023-11-19T23:07:04;6.70;;;2.63;;
3309;SDS011;1667;53.238;10.394;2023-11-19T23:12:04;10.03;;;2.23;;
3309;SDS011;1667;53.238;10.394;2023-11-19T23:17:02;7.50;;;2.50;;
3309;SDS011;1667;53.238;10.394;2023-11-19T23:22:03;5.63;;;2.50;;
3309;SDS011;1667;53.238;10.394;2023-11-19T23:27:02;3.53;;;2.33;;
3309;SDS011;1667;53.238;10.394;2023-11-19T23:32:01;6.50;;;2.57;;
3309;SDS011;1667;53.238;10.394;2023-11-19T23:37:02;9.57;;;2.37;;
3309;SDS011;1667;53.238;10.394;2023-11-19T23:42:01;4.57;;;2.00;;
3309;SDS011;1667;53.238;10.394;2023-11-19T23:47:00;6.43;;;1.87;;
3309;SDS011;1667;53.238;10.394;2023-11-19T23:51:59;11.47;;;2.30;;
3309;SDS011;1667;53.238;10.394;2023-11-19T23:57:02;6.53;;;3.13;;
